EVRA Airport Information

Runway Information
Runway 18 Length 10499 ft width 148 ft
Elevation 31 ft Threshold 0 ft Heading 185
Runway 36 Length 10499 ft Width 148 ft
Elevation 34 ft Threshold 0 ft Heading 5
Airport Frequencies
Type APP Name APP Frequency 129.925 MHZ
Type ATIS Name ATIS Frequency 121.2 MHZ
Type GND Name Riga Groun Frequency 118.8 MHZ
Type MISC Name Riga Apron Frequency 131.6 MHZ
Type TWR Name TWR Frequency 118.1 MHZ
Airport Navaids
Type VOR-DME Name Riga Frequency 112050 KHZ
Type VOR-DME Name Riga Frequency 113700 KHZ
Airport Weather Information & NOTAM
ADDS - METARS form results

(1023 UTC 24 April 2019)
Data provider http://aviationweather.gov/metar/data/
 
METAR text: EVRA 241020Z 16019KT CAVOK 22/M03 Q1025 NOSIG
Conditions at: EVRA (RIGA AIRPORT , LV) observed 1020 UTC 24 April 2019
Temperature: 22.0°C (72°F)
Dewpoint: -3.0°C (27°F) [RH = 19%]
Pressure (altimeter): 30.27 inches Hg (1025.0 mb)
Winds: from the SSE (160 degrees) at 22 MPH (19 knots; 9.8 m/s)
Visibility: 6 or more miles (10+ km)
Ceiling: ceiling and visibility are OK
Clouds: unknown
Weather: no significant weather observed at this time

METAR text: EVRA 240950Z 17014KT CAVOK 21/M04 Q1026 NOSIG
Conditions at: EVRA (RIGA AIRPORT , LV) observed 0950 UTC 24 April 2019
Temperature: 21.0°C (70°F)
Dewpoint: -4.0°C (25°F) [RH = 18%]
Pressure (altimeter): 30.30 inches Hg (1026.0 mb)
Winds: from the S (170 degrees) at 16 MPH (14 knots; 7.2 m/s)
Visibility: 6 or more miles (10+ km)
Ceiling: ceiling and visibility are OK
Clouds: unknown
Weather: no significant weather observed at this time

Forecast for: EVRA (RIGA AIRPORT , LV)
Text: TAF EVRA 240800Z 2409/2509 14010KT CAVOK
Forecast period: 0900 to 1700 UTC 24 April 2019
Forecast type: FROM: standard forecast or significant change
Winds: from the SE (140 degrees) at 12 MPH (10 knots; 5.1 m/s)
Visibility: 6 or more miles 10+ km)
Ceiling: unknown
Clouds: missing
Weather: NSW  (no significant weather)
Text: TEMPO 2409/2415 15017G30KT
Forecast period: 0900 to 1500 UTC 24 April 2019
Forecast type: TEMPORARY: The following changes expected for less than half the time period
Winds: from the SSE (150 degrees) at 20 MPH (17 knots; 8.7 m/s)
gusting to 34 MPH (30 knots; 15.4 m/s)
Visibility: missing
Ceiling: unknown
Clouds: missing
Weather: no significant weather forecast for this period
Text: BECMG 2417/2418 VRB02KT
Forecast period: 1700 UTC 24 April 2019 to 0900 UTC 25 April 2019
Forecast type: BECOMING: Conditions expected to become as follows by 1800 UTC 24 April 2019
Winds: variable direction winds at 2 MPH (2 knots; 1.0 m/s)
Visibility: 6 or more miles 10+ km)
Ceiling: unknown
Clouds: missing
Weather: NSW  (no significant weather)